sensor_id;sensor_type;location;lat;lon;timestamp;P1;durP1;ratioP1;P2;durP2;ratioP2
29984;SDS011;17387;42.690;23.328;2023-04-30T00:00:17;26.40;;;16.40;;
29984;SDS011;17387;42.690;23.328;2023-04-30T00:02:43;30.15;;;16.17;;
29984;SDS011;17387;42.690;23.328;2023-04-30T00:05:08;26.98;;;15.88;;
29984;SDS011;17387;42.690;23.328;2023-04-30T00:07:33;25.05;;;15.48;;
29984;SDS011;17387;42.690;23.328;2023-04-30T00:09:58;28.83;;;16.95;;
29984;SDS011;17387;42.690;23.328;2023-04-30T00:12:24;21.95;;;14.70;;
29984;SDS011;17387;42.690;23.328;2023-04-30T00:14:49;25.00;;;15.13;;
29984;SDS011;17387;42.690;23.328;2023-04-30T00:17:15;25.70;;;15.40;;
29984;SDS011;17387;42.690;23.328;2023-04-30T00:19:41;29.45;;;15.70;;
29984;SDS011;17387;42.690;23.328;2023-04-30T00:22:06;25.75;;;15.00;;
29984;SDS011;17387;42.690;23.328;2023-04-30T00:24:31;25.42;;;16.35;;
29984;SDS011;17387;42.690;23.328;2023-04-30T00:26:57;28.25;;;16.15;;
29984;SDS011;17387;42.690;23.328;2023-04-30T00:29:22;24.00;;;15.73;;
29984;SDS011;17387;42.690;23.328;2023-04-30T00:31:47;26.15;;;15.88;;
29984;SDS011;17387;42.690;23.328;2023-04-30T00:34:12;25.25;;;15.65;;
29984;SDS011;17387;42.690;23.328;2023-04-30T00:36:38;27.92;;;16.15;;
29984;SDS011;17387;42.690;23.328;2023-04-30T00:39:04;28.27;;;16.33;;
29984;SDS011;17387;42.690;23.328;2023-04-30T00:41:30;23.88;;;15.90;;
29984;SDS011;17387;42.690;23.328;2023-04-30T00:43:55;23.08;;;15.30;;
29984;SDS011;17387;42.690;23.328;2023-04-30T00:46:21;23.83;;;15.35;;
29984;SDS011;17387;42.690;23.328;2023-04-30T00:48:46;21.83;;;14.85;;
29984;SDS011;17387;42.690;23.328;2023-04-30T00:51:11;26.67;;;15.55;;
29984;SDS011;17387;42.690;23.328;2023-04-30T00:53:37;23.08;;;15.75;;
29984;SDS011;17387;42.690;23.328;2023-04-30T00:56:04;24.25;;;15.10;;
29984;SDS011;17387;42.690;23.328;2023-04-30T00:58:30;26.45;;;15.13;;
29984;SDS011;17387;42.690;23.328;2023-04-30T01:00:55;23.92;;;14.98;;
29984;SDS011;17387;42.690;23.328;2023-04-30T01:03:20;23.85;;;14.55;;
29984;SDS011;17387;42.690;23.328;2023-04-30T01:05:46;23.30;;;14.05;;
29984;SDS011;17387;42.690;23.328;2023-04-30T01:08:12;22.00;;;14.38;;
29984;SDS011;17387;42.690;23.328;2023-04-30T01:10:41;22.77;;;14.98;;
29984;SDS011;17387;42.690;23.328;2023-04-30T01:16:05;23.83;;;14.63;;
29984;SDS011;17387;42.690;23.328;2023-04-30T01:18:36;22.63;;;13.55;;
29984;SDS011;17387;42.690;23.328;2023-04-30T01:21:04;24.17;;;14.43;;
29984;SDS011;17387;42.690;23.328;2023-04-30T01:26:14;25.35;;;15.32;;
29984;SDS011;17387;42.690;23.328;2023-04-30T01:28:43;22.90;;;14.30;;
29984;SDS011;17387;42.690;23.328;2023-04-30T01:31:11;24.40;;;15.05;;
29984;SDS011;17387;42.690;23.328;2023-04-30T01:33:36;25.67;;;15.35;;
29984;SDS011;17387;42.690;23.328;2023-04-30T01:36:08;22.52;;;15.65;;
29984;SDS011;17387;42.690;23.328;2023-04-30T01:46:32;23.83;;;14.73;;
29984;SDS011;17387;42.690;23.328;2023-04-30T01:51:42;22.60;;;14.63;;
29984;SDS011;17387;42.690;23.328;2023-04-30T01:54:18;22.20;;;14.40;;
29984;SDS011;17387;42.690;23.328;2023-04-30T01:56:52;26.02;;;14.23;;
29984;SDS011;17387;42.690;23.328;2023-04-30T01:59:21;20.55;;;13.93;;
29984;SDS011;17387;42.690;23.328;2023-04-30T02:01:47;21.67;;;13.55;;
29984;SDS011;17387;42.690;23.328;2023-04-30T02:04:12;22.17;;;14.10;;
29984;SDS011;17387;42.690;23.328;2023-04-30T02:06:37;23.70;;;14.10;;
29984;SDS011;17387;42.690;23.328;2023-04-30T02:09:03;20.33;;;12.93;;
29984;SDS011;17387;42.690;23.328;2023-04-30T02:11:30;21.42;;;13.35;;
29984;SDS011;17387;42.690;23.328;2023-04-30T02:13:56;18.40;;;12.52;;
29984;SDS011;17387;42.690;23.328;2023-04-30T02:16:21;18.83;;;12.68;;
29984;SDS011;17387;42.690;23.328;2023-04-30T02:18:47;21.85;;;13.52;;
29984;SDS011;17387;42.690;23.328;2023-04-30T02:21:12;23.90;;;13.00;;
29984;SDS011;17387;42.690;23.328;2023-04-30T02:23:38;21.40;;;12.98;;
29984;SDS011;17387;42.690;23.328;2023-04-30T02:26:03;21.98;;;12.80;;
29984;SDS011;17387;42.690;23.328;2023-04-30T02:28:28;21.48;;;13.45;;
29984;SDS011;17387;42.690;23.328;2023-04-30T02:30:54;20.15;;;13.40;;
29984;SDS011;17387;42.690;23.328;2023-04-30T02:33:19;25.88;;;13.27;;
29984;SDS011;17387;42.690;23.328;2023-04-30T02:35:44;21.67;;;12.95;;
29984;SDS011;17387;42.690;23.328;2023-04-30T02:38:10;20.80;;;13.63;;
29984;SDS011;17387;42.690;23.328;2023-04-30T02:40:35;19.88;;;12.30;;
29984;SDS011;17387;42.690;23.328;2023-04-30T02:43:00;20.60;;;13.27;;
29984;SDS011;17387;42.690;23.328;2023-04-30T02:45:26;18.25;;;12.63;;
29984;SDS011;17387;42.690;23.328;2023-04-30T02:47:51;24.30;;;13.00;;
29984;SDS011;17387;42.690;23.328;2023-04-30T02:50:20;20.70;;;12.27;;
29984;SDS011;17387;42.690;23.328;2023-04-30T02:52:47;19.92;;;12.80;;
29984;SDS011;17387;42.690;23.328;2023-04-30T02:55:12;24.70;;;12.85;;
29984;SDS011;17387;42.690;23.328;2023-04-30T02:57:38;18.02;;;11.98;;
29984;SDS011;17387;42.690;23.328;2023-04-30T03:00:06;21.17;;;12.35;;
29984;SDS011;17387;42.690;23.328;2023-04-30T03:02:31;19.40;;;12.50;;
29984;SDS011;17387;42.690;23.328;2023-04-30T03:04:56;19.77;;;11.93;;
29984;SDS011;17387;42.690;23.328;2023-04-30T03:07:22;19.60;;;12.07;;
29984;SDS011;17387;42.690;23.328;2023-04-30T03:09:47;20.67;;;13.00;;
29984;SDS011;17387;42.690;23.328;2023-04-30T03:12:12;20.30;;;12.60;;
29984;SDS011;17387;42.690;23.328;2023-04-30T03:14:38;17.73;;;12.32;;
29984;SDS011;17387;42.690;23.328;2023-04-30T03:17:04;19.50;;;12.77;;
29984;SDS011;17387;42.690;23.328;2023-04-30T03:19:29;18.15;;;11.70;;
29984;SDS011;17387;42.690;23.328;2023-04-30T03:21:54;15.98;;;10.73;;
29984;SDS011;17387;42.690;23.328;2023-04-30T03:24:20;14.10;;;10.00;;
29984;SDS011;17387;42.690;23.328;2023-04-30T03:26:45;17.77;;;10.27;;
29984;SDS011;17387;42.690;23.328;2023-04-30T03:29:11;20.00;;;11.60;;
29984;SDS011;17387;42.690;23.328;2023-04-30T03:31:36;16.83;;;11.35;;
29984;SDS011;17387;42.690;23.328;2023-04-30T03:34:01;19.08;;;11.68;;
29984;SDS011;17387;42.690;23.328;2023-04-30T03:36:27;20.52;;;12.32;;
29984;SDS011;17387;42.690;23.328;2023-04-30T03:38:52;15.80;;;10.90;;
29984;SDS011;17387;42.690;23.328;2023-04-30T03:41:17;18.85;;;11.30;;
29984;SDS011;17387;42.690;23.328;2023-04-30T03:43:43;17.73;;;10.20;;
29984;SDS011;17387;42.690;23.328;2023-04-30T03:46:08;14.90;;;9.68;;
29984;SDS011;17387;42.690;23.328;2023-04-30T03:48:33;16.73;;;9.88;;
29984;SDS011;17387;42.690;23.328;2023-04-30T03:50:58;16.55;;;9.80;;
29984;SDS011;17387;42.690;23.328;2023-04-30T03:53:24;16.58;;;11.02;;
29984;SDS011;17387;42.690;23.328;2023-04-30T03:55:50;17.80;;;10.40;;
29984;SDS011;17387;42.690;23.328;2023-04-30T03:58:16;19.58;;;10.45;;
29984;SDS011;17387;42.690;23.328;2023-04-30T04:00:41;21.65;;;10.82;;
29984;SDS011;17387;42.690;23.328;2023-04-30T04:03:06;17.55;;;10.82;;
29984;SDS011;17387;42.690;23.328;2023-04-30T04:05:32;20.58;;;11.30;;
29984;SDS011;17387;42.690;23.328;2023-04-30T04:07:57;16.63;;;8.25;;
29984;SDS011;17387;42.690;23.328;2023-04-30T04:10:22;15.65;;;8.63;;
29984;SDS011;17387;42.690;23.328;2023-04-30T04:12:48;13.85;;;8.02;;
29984;SDS011;17387;42.690;23.328;2023-04-30T04:15:13;12.57;;;7.95;;
29984;SDS011;17387;42.690;23.328;2023-04-30T04:17:38;12.27;;;7.65;;
29984;SDS011;17387;42.690;23.328;2023-04-30T04:20:04;16.48;;;8.55;;
29984;SDS011;17387;42.690;23.328;2023-04-30T04:22:30;15.27;;;8.20;;
29984;SDS011;17387;42.690;23.328;2023-04-30T04:24:55;13.00;;;8.50;;
29984;SDS011;17387;42.690;23.328;2023-04-30T04:27:21;16.67;;;8.50;;
29984;SDS011;17387;42.690;23.328;2023-04-30T04:29:46;16.27;;;8.82;;
29984;SDS011;17387;42.690;23.328;2023-04-30T04:32:11;14.90;;;7.80;;
29984;SDS011;17387;42.690;23.328;2023-04-30T04:34:38;15.25;;;8.27;;
29984;SDS011;17387;42.690;23.328;2023-04-30T04:37:04;14.40;;;7.93;;
29984;SDS011;17387;42.690;23.328;2023-04-30T04:39:29;13.40;;;7.93;;
29984;SDS011;17387;42.690;23.328;2023-04-30T04:41:55;13.27;;;8.05;;
29984;SDS011;17387;42.690;23.328;2023-04-30T04:44:20;14.95;;;8.35;;
29984;SDS011;17387;42.690;23.328;2023-04-30T04:46:46;11.40;;;7.57;;
29984;SDS011;17387;42.690;23.328;2023-04-30T04:49:11;13.45;;;7.50;;
29984;SDS011;17387;42.690;23.328;2023-04-30T04:51:37;13.85;;;7.45;;
29984;SDS011;17387;42.690;23.328;2023-04-30T04:54:03;17.00;;;7.38;;
29984;SDS011;17387;42.690;23.328;2023-04-30T04:56:28;12.25;;;7.60;;
29984;SDS011;17387;42.690;23.328;2023-04-30T04:58:54;17.27;;;9.65;;
29984;SDS011;17387;42.690;23.328;2023-04-30T05:01:19;11.80;;;7.57;;
29984;SDS011;17387;42.690;23.328;2023-04-30T05:03:45;13.30;;;7.55;;
29984;SDS011;17387;42.690;23.328;2023-04-30T05:06:11;14.50;;;8.15;;
29984;SDS011;17387;42.690;23.328;2023-04-30T05:08:36;11.88;;;8.05;;
29984;SDS011;17387;42.690;23.328;2023-04-30T05:11:02;13.52;;;8.40;;
29984;SDS011;17387;42.690;23.328;2023-04-30T05:13:27;25.23;;;14.32;;
29984;SDS011;17387;42.690;23.328;2023-04-30T05:15:52;13.18;;;9.45;;
29984;SDS011;17387;42.690;23.328;2023-04-30T05:18:18;17.65;;;9.82;;
29984;SDS011;17387;42.690;23.328;2023-04-30T05:20:44;18.00;;;12.75;;
29984;SDS011;17387;42.690;23.328;2023-04-30T05:23:09;18.13;;;9.90;;
29984;SDS011;17387;42.690;23.328;2023-04-30T05:25:35;14.55;;;8.98;;
29984;SDS011;17387;42.690;23.328;2023-04-30T05:28:00;15.65;;;9.20;;
29984;SDS011;17387;42.690;23.328;2023-04-30T05:30:25;14.63;;;9.25;;
29984;SDS011;17387;42.690;23.328;2023-04-30T05:32:51;15.40;;;9.27;;
29984;SDS011;17387;42.690;23.328;2023-04-30T05:35:17;14.95;;;8.15;;
29984;SDS011;17387;42.690;23.328;2023-04-30T05:37:42;12.40;;;8.57;;
29984;SDS011;17387;42.690;23.328;2023-04-30T05:40:07;12.32;;;8.38;;
29984;SDS011;17387;42.690;23.328;2023-04-30T05:42:33;16.45;;;8.75;;
29984;SDS011;17387;42.690;23.328;2023-04-30T05:44:58;12.57;;;8.57;;
29984;SDS011;17387;42.690;23.328;2023-04-30T05:47:24;14.35;;;8.65;;
29984;SDS011;17387;42.690;23.328;2023-04-30T05:49:49;17.67;;;8.65;;
29984;SDS011;17387;42.690;23.328;2023-04-30T05:52:14;13.75;;;8.15;;
29984;SDS011;17387;42.690;23.328;2023-04-30T05:54:41;14.55;;;9.13;;
29984;SDS011;17387;42.690;23.328;2023-04-30T05:57:06;15.95;;;9.60;;
29984;SDS011;17387;42.690;23.328;2023-04-30T05:59:32;14.02;;;9.13;;
29984;SDS011;17387;42.690;23.328;2023-04-30T06:01:57;18.65;;;9.85;;
29984;SDS011;17387;42.690;23.328;2023-04-30T06:04:22;19.35;;;10.73;;
29984;SDS011;17387;42.690;23.328;2023-04-30T06:06:47;16.90;;;11.30;;
29984;SDS011;17387;42.690;23.328;2023-04-30T06:09:12;18.13;;;11.80;;
29984;SDS011;17387;42.690;23.328;2023-04-30T06:11:38;19.05;;;12.38;;
29984;SDS011;17387;42.690;23.328;2023-04-30T06:14:03;23.63;;;12.98;;
29984;SDS011;17387;42.690;23.328;2023-04-30T06:16:28;26.38;;;13.77;;
29984;SDS011;17387;42.690;23.328;2023-04-30T06:18:54;22.45;;;13.75;;
29984;SDS011;17387;42.690;23.328;2023-04-30T06:21:19;20.15;;;13.52;;
29984;SDS011;17387;42.690;23.328;2023-04-30T06:23:44;20.08;;;13.68;;
29984;SDS011;17387;42.690;23.328;2023-04-30T06:26:10;18.95;;;13.07;;
29984;SDS011;17387;42.690;23.328;2023-04-30T06:28:38;18.50;;;13.38;;
29984;SDS011;17387;42.690;23.328;2023-04-30T06:31:04;22.07;;;12.90;;
29984;SDS011;17387;42.690;23.328;2023-04-30T06:33:29;21.38;;;12.75;;
29984;SDS011;17387;42.690;23.328;2023-04-30T06:35:54;21.08;;;13.23;;
29984;SDS011;17387;42.690;23.328;2023-04-30T06:38:23;17.15;;;12.25;;
29984;SDS011;17387;42.690;23.328;2023-04-30T06:40:48;18.38;;;11.75;;
29984;SDS011;17387;42.690;23.328;2023-04-30T06:43:13;23.83;;;13.25;;
29984;SDS011;17387;42.690;23.328;2023-04-30T06:45:38;20.27;;;12.15;;
29984;SDS011;17387;42.690;23.328;2023-04-30T06:48:04;26.40;;;11.52;;
29984;SDS011;17387;42.690;23.328;2023-04-30T06:50:29;24.38;;;11.10;;
29984;SDS011;17387;42.690;23.328;2023-04-30T06:52:58;19.02;;;11.13;;
29984;SDS011;17387;42.690;23.328;2023-04-30T06:55:23;17.05;;;11.13;;
29984;SDS011;17387;42.690;23.328;2023-04-30T06:57:48;17.52;;;10.45;;
29984;SDS011;17387;42.690;23.328;2023-04-30T07:00:14;18.35;;;12.23;;
29984;SDS011;17387;42.690;23.328;2023-04-30T07:02:39;16.50;;;11.82;;
29984;SDS011;17387;42.690;23.328;2023-04-30T07:05:04;18.27;;;12.07;;
29984;SDS011;17387;42.690;23.328;2023-04-30T07:07:30;18.00;;;11.43;;
29984;SDS011;17387;42.690;23.328;2023-04-30T07:09:56;18.33;;;11.77;;
29984;SDS011;17387;42.690;23.328;2023-04-30T07:12:21;23.65;;;13.68;;
29984;SDS011;17387;42.690;23.328;2023-04-30T07:14:47;18.73;;;10.75;;
29984;SDS011;17387;42.690;23.328;2023-04-30T07:17:12;20.67;;;11.07;;
29984;SDS011;17387;42.690;23.328;2023-04-30T07:19:37;18.52;;;10.40;;
29984;SDS011;17387;42.690;23.328;2023-04-30T07:22:02;18.80;;;10.85;;
29984;SDS011;17387;42.690;23.328;2023-04-30T07:24:28;20.37;;;10.63;;
29984;SDS011;17387;42.690;23.328;2023-04-30T07:26:53;17.30;;;10.48;;
29984;SDS011;17387;42.690;23.328;2023-04-30T07:29:18;23.63;;;14.52;;
29984;SDS011;17387;42.690;23.328;2023-04-30T07:31:44;20.60;;;12.27;;
29984;SDS011;17387;42.690;23.328;2023-04-30T07:34:09;19.60;;;11.38;;
29984;SDS011;17387;42.690;23.328;2023-04-30T07:36:34;19.35;;;10.57;;
29984;SDS011;17387;42.690;23.328;2023-04-30T07:39:02;19.05;;;11.15;;
29984;SDS011;17387;42.690;23.328;2023-04-30T07:41:27;16.92;;;10.98;;
29984;SDS011;17387;42.690;23.328;2023-04-30T07:43:53;18.25;;;10.85;;
29984;SDS011;17387;42.690;23.328;2023-04-30T07:46:18;19.83;;;11.38;;
29984;SDS011;17387;42.690;23.328;2023-04-30T07:48:45;22.50;;;11.27;;
29984;SDS011;17387;42.690;23.328;2023-04-30T07:51:11;18.55;;;9.43;;
29984;SDS011;17387;42.690;23.328;2023-04-30T07:53:36;14.82;;;8.40;;
29984;SDS011;17387;42.690;23.328;2023-04-30T07:56:01;20.48;;;9.95;;
29984;SDS011;17387;42.690;23.328;2023-04-30T07:58:27;16.15;;;9.30;;
29984;SDS011;17387;42.690;23.328;2023-04-30T08:00:52;16.52;;;8.95;;
29984;SDS011;17387;42.690;23.328;2023-04-30T08:03:17;12.80;;;8.10;;
29984;SDS011;17387;42.690;23.328;2023-04-30T08:05:43;14.07;;;7.75;;
29984;SDS011;17387;42.690;23.328;2023-04-30T08:08:10;10.73;;;6.90;;
29984;SDS011;17387;42.690;23.328;2023-04-30T08:10:35;11.10;;;6.68;;
29984;SDS011;17387;42.690;23.328;2023-04-30T08:13:02;9.85;;;5.68;;
29984;SDS011;17387;42.690;23.328;2023-04-30T08:15:27;9.45;;;5.85;;
29984;SDS011;17387;42.690;23.328;2023-04-30T08:17:53;10.52;;;5.68;;
29984;SDS011;17387;42.690;23.328;2023-04-30T08:20:18;9.50;;;6.00;;
29984;SDS011;17387;42.690;23.328;2023-04-30T08:22:44;9.18;;;5.50;;
29984;SDS011;17387;42.690;23.328;2023-04-30T08:25:09;9.80;;;5.30;;
29984;SDS011;17387;42.690;23.328;2023-04-30T08:27:35;9.70;;;5.53;;
29984;SDS011;17387;42.690;23.328;2023-04-30T08:30:03;9.40;;;5.70;;
29984;SDS011;17387;42.690;23.328;2023-04-30T08:32:28;12.05;;;5.78;;
29984;SDS011;17387;42.690;23.328;2023-04-30T08:34:54;12.65;;;6.88;;
29984;SDS011;17387;42.690;23.328;2023-04-30T08:37:19;10.73;;;5.70;;
29984;SDS011;17387;42.690;23.328;2023-04-30T08:39:45;14.35;;;5.80;;
29984;SDS011;17387;42.690;23.328;2023-04-30T08:42:11;13.03;;;5.63;;
29984;SDS011;17387;42.690;23.328;2023-04-30T08:44:37;14.00;;;5.93;;
29984;SDS011;17387;42.690;23.328;2023-04-30T08:47:03;11.48;;;5.43;;
29984;SDS011;17387;42.690;23.328;2023-04-30T08:49:30;12.60;;;7.15;;
29984;SDS011;17387;42.690;23.328;2023-04-30T08:51:57;9.10;;;5.30;;
29984;SDS011;17387;42.690;23.328;2023-04-30T08:54:24;8.10;;;5.55;;
29984;SDS011;17387;42.690;23.328;2023-04-30T08:56:50;11.25;;;5.13;;
29984;SDS011;17387;42.690;23.328;2023-04-30T08:59:15;7.53;;;4.65;;
29984;SDS011;17387;42.690;23.328;2023-04-30T09:01:40;7.57;;;4.78;;
29984;SDS011;17387;42.690;23.328;2023-04-30T09:04:06;8.75;;;4.40;;
29984;SDS011;17387;42.690;23.328;2023-04-30T09:06:31;9.40;;;4.85;;
29984;SDS011;17387;42.690;23.328;2023-04-30T09:09:06;11.15;;;4.63;;
29984;SDS011;17387;42.690;23.328;2023-04-30T09:11:32;8.20;;;4.47;;
29984;SDS011;17387;42.690;23.328;2023-04-30T09:13:58;8.07;;;4.53;;
29984;SDS011;17387;42.690;23.328;2023-04-30T09:16:24;10.75;;;4.90;;
29984;SDS011;17387;42.690;23.328;2023-04-30T09:18:50;6.25;;;4.40;;
29984;SDS011;17387;42.690;23.328;2023-04-30T09:21:15;6.35;;;4.80;;
29984;SDS011;17387;42.690;23.328;2023-04-30T09:23:53;9.35;;;4.85;;
29984;SDS011;17387;42.690;23.328;2023-04-30T09:26:20;7.82;;;4.63;;
29984;SDS011;17387;42.690;23.328;2023-04-30T09:28:53;6.72;;;4.38;;
29984;SDS011;17387;42.690;23.328;2023-04-30T09:31:19;6.65;;;4.68;;
29984;SDS011;17387;42.690;23.328;2023-04-30T09:33:45;9.00;;;5.03;;
29984;SDS011;17387;42.690;23.328;2023-04-30T09:36:11;6.97;;;4.60;;
29984;SDS011;17387;42.690;23.328;2023-04-30T09:38:37;4.55;;;4.03;;
29984;SDS011;17387;42.690;23.328;2023-04-30T09:41:02;4.65;;;4.00;;
29984;SDS011;17387;42.690;23.328;2023-04-30T09:43:27;5.47;;;3.80;;
29984;SDS011;17387;42.690;23.328;2023-04-30T09:45:53;5.95;;;4.55;;
29984;SDS011;17387;42.690;23.328;2023-04-30T09:48:21;7.60;;;4.55;;
29984;SDS011;17387;42.690;23.328;2023-04-30T09:50:47;4.95;;;4.30;;
29984;SDS011;17387;42.690;23.328;2023-04-30T09:53:13;4.97;;;4.38;;
29984;SDS011;17387;42.690;23.328;2023-04-30T09:55:42;4.25;;;3.80;;
29984;SDS011;17387;42.690;23.328;2023-04-30T09:58:07;5.38;;;3.58;;
29984;SDS011;17387;42.690;23.328;2023-04-30T10:00:34;7.40;;;4.40;;
29984;SDS011;17387;42.690;23.328;2023-04-30T10:03:00;6.68;;;4.10;;
29984;SDS011;17387;42.690;23.328;2023-04-30T10:05:29;5.32;;;3.88;;
29984;SDS011;17387;42.690;23.328;2023-04-30T10:07:56;5.75;;;3.72;;
29984;SDS011;17387;42.690;23.328;2023-04-30T10:10:22;5.22;;;3.85;;
29984;SDS011;17387;42.690;23.328;2023-04-30T10:12:50;4.63;;;3.75;;
29984;SDS011;17387;42.690;23.328;2023-04-30T10:15:23;3.92;;;3.08;;
29984;SDS011;17387;42.690;23.328;2023-04-30T10:17:51;5.32;;;3.58;;
29984;SDS011;17387;42.690;23.328;2023-04-30T10:20:18;3.97;;;3.15;;
29984;SDS011;17387;42.690;23.328;2023-04-30T10:22:45;5.15;;;3.45;;
29984;SDS011;17387;42.690;23.328;2023-04-30T10:25:11;4.38;;;3.45;;
29984;SDS011;17387;42.690;23.328;2023-04-30T10:27:37;7.07;;;4.10;;
29984;SDS011;17387;42.690;23.328;2023-04-30T10:30:03;6.65;;;4.20;;
29984;SDS011;17387;42.690;23.328;2023-04-30T10:37:38;9.87;;;6.30;;
29984;SDS011;17387;42.690;23.328;2023-04-30T10:40:04;6.18;;;5.10;;
29984;SDS011;17387;42.690;23.328;2023-04-30T10:42:30;8.13;;;4.88;;
29984;SDS011;17387;42.690;23.328;2023-04-30T10:44:55;7.40;;;5.72;;
29984;SDS011;17387;42.690;23.328;2023-04-30T10:47:26;12.27;;;6.90;;
29984;SDS011;17387;42.690;23.328;2023-04-30T10:49:52;8.02;;;5.50;;
29984;SDS011;17387;42.690;23.328;2023-04-30T10:52:25;5.22;;;4.05;;
29984;SDS011;17387;42.690;23.328;2023-04-30T10:54:51;7.28;;;5.25;;
29984;SDS011;17387;42.690;23.328;2023-04-30T10:57:17;7.32;;;5.63;;
29984;SDS011;17387;42.690;23.328;2023-04-30T10:59:49;11.82;;;7.70;;
29984;SDS011;17387;42.690;23.328;2023-04-30T11:02:15;5.97;;;4.28;;
29984;SDS011;17387;42.690;23.328;2023-04-30T11:07:27;5.13;;;4.10;;
29984;SDS011;17387;42.690;23.328;2023-04-30T11:09:52;4.93;;;4.15;;
29984;SDS011;17387;42.690;23.328;2023-04-30T11:12:20;5.53;;;4.95;;
29984;SDS011;17387;42.690;23.328;2023-04-30T11:17:21;4.57;;;2.97;;
29984;SDS011;17387;42.690;23.328;2023-04-30T11:19:50;6.32;;;3.70;;
29984;SDS011;17387;42.690;23.328;2023-04-30T11:22:17;4.72;;;3.22;;
29984;SDS011;17387;42.690;23.328;2023-04-30T11:24:50;4.28;;;3.53;;
29984;SDS011;17387;42.690;23.328;2023-04-30T11:27:18;6.97;;;3.50;;
29984;SDS011;17387;42.690;23.328;2023-04-30T11:29:44;5.70;;;3.67;;
29984;SDS011;17387;42.690;23.328;2023-04-30T11:32:10;5.28;;;3.67;;
29984;SDS011;17387;42.690;23.328;2023-04-30T11:34:36;4.63;;;3.50;;
29984;SDS011;17387;42.690;23.328;2023-04-30T11:37:01;4.57;;;3.47;;
29984;SDS011;17387;42.690;23.328;2023-04-30T11:39:27;5.60;;;4.47;;
29984;SDS011;17387;42.690;23.328;2023-04-30T11:41:53;8.38;;;3.53;;
29984;SDS011;17387;42.690;23.328;2023-04-30T11:44:22;8.73;;;6.22;;
29984;SDS011;17387;42.690;23.328;2023-04-30T11:46:47;10.30;;;5.93;;
29984;SDS011;17387;42.690;23.328;2023-04-30T11:49:13;4.55;;;3.67;;
29984;SDS011;17387;42.690;23.328;2023-04-30T11:51:38;4.90;;;3.90;;
29984;SDS011;17387;42.690;23.328;2023-04-30T11:54:06;7.50;;;5.40;;
29984;SDS011;17387;42.690;23.328;2023-04-30T11:56:32;10.38;;;5.32;;
29984;SDS011;17387;42.690;23.328;2023-04-30T11:59:08;9.82;;;6.20;;
29984;SDS011;17387;42.690;23.328;2023-04-30T12:01:33;16.52;;;9.10;;
29984;SDS011;17387;42.690;23.328;2023-04-30T12:03:58;10.23;;;5.97;;
29984;SDS011;17387;42.690;23.328;2023-04-30T12:06:25;8.82;;;5.45;;
29984;SDS011;17387;42.690;23.328;2023-04-30T12:08:54;7.13;;;3.85;;
29984;SDS011;17387;42.690;23.328;2023-04-30T12:11:27;8.45;;;5.30;;
29984;SDS011;17387;42.690;23.328;2023-04-30T12:13:53;8.43;;;3.90;;
29984;SDS011;17387;42.690;23.328;2023-04-30T12:16:19;6.13;;;4.57;;
29984;SDS011;17387;42.690;23.328;2023-04-30T12:18:44;7.03;;;4.97;;
29984;SDS011;17387;42.690;23.328;2023-04-30T12:21:10;4.95;;;4.20;;
29984;SDS011;17387;42.690;23.328;2023-04-30T12:23:35;4.85;;;3.78;;
29984;SDS011;17387;42.690;23.328;2023-04-30T12:26:01;5.72;;;4.40;;
29984;SDS011;17387;42.690;23.328;2023-04-30T12:28:26;6.45;;;4.55;;
29984;SDS011;17387;42.690;23.328;2023-04-30T12:30:52;9.63;;;5.40;;
29984;SDS011;17387;42.690;23.328;2023-04-30T12:33:17;7.13;;;4.03;;
29984;SDS011;17387;42.690;23.328;2023-04-30T12:35:42;6.78;;;4.13;;
29984;SDS011;17387;42.690;23.328;2023-04-30T12:38:08;10.70;;;6.53;;
29984;SDS011;17387;42.690;23.328;2023-04-30T12:40:33;9.80;;;5.93;;
29984;SDS011;17387;42.690;23.328;2023-04-30T12:43:05;8.52;;;6.03;;
29984;SDS011;17387;42.690;23.328;2023-04-30T12:45:44;15.10;;;9.35;;
29984;SDS011;17387;42.690;23.328;2023-04-30T12:48:09;12.32;;;8.52;;
29984;SDS011;17387;42.690;23.328;2023-04-30T12:50:35;9.95;;;6.38;;
29984;SDS011;17387;42.690;23.328;2023-04-30T12:53:01;13.15;;;7.30;;
29984;SDS011;17387;42.690;23.328;2023-04-30T12:55:27;7.32;;;6.20;;
29984;SDS011;17387;42.690;23.328;2023-04-30T12:58:06;10.05;;;5.82;;
29984;SDS011;17387;42.690;23.328;2023-04-30T13:00:42;9.98;;;5.88;;
29984;SDS011;17387;42.690;23.328;2023-04-30T13:03:07;33.15;;;20.00;;
29984;SDS011;17387;42.690;23.328;2023-04-30T13:05:32;14.80;;;8.33;;
29984;SDS011;17387;42.690;23.328;2023-04-30T13:08:01;42.40;;;18.40;;
29984;SDS011;17387;42.690;23.328;2023-04-30T13:10:27;22.55;;;11.68;;
29984;SDS011;17387;42.690;23.328;2023-04-30T13:12:53;14.80;;;8.07;;
29984;SDS011;17387;42.690;23.328;2023-04-30T13:15:18;12.07;;;7.50;;
29984;SDS011;17387;42.690;23.328;2023-04-30T13:17:43;12.97;;;7.90;;
29984;SDS011;17387;42.690;23.328;2023-04-30T13:20:09;13.15;;;6.88;;
29984;SDS011;17387;42.690;23.328;2023-04-30T13:22:34;15.88;;;10.57;;
29984;SDS011;17387;42.690;23.328;2023-04-30T13:24:59;9.73;;;6.77;;
29984;SDS011;17387;42.690;23.328;2023-04-30T13:27:25;17.63;;;10.27;;
29984;SDS011;17387;42.690;23.328;2023-04-30T13:29:50;6.00;;;4.70;;
29984;SDS011;17387;42.690;23.328;2023-04-30T13:32:16;11.68;;;6.00;;
29984;SDS011;17387;42.690;23.328;2023-04-30T13:34:41;6.47;;;4.70;;
29984;SDS011;17387;42.690;23.328;2023-04-30T13:37:06;11.57;;;7.22;;
29984;SDS011;17387;42.690;23.328;2023-04-30T13:39:31;7.00;;;5.30;;
29984;SDS011;17387;42.690;23.328;2023-04-30T13:41:57;6.83;;;5.13;;
29984;SDS011;17387;42.690;23.328;2023-04-30T13:44:22;6.27;;;5.00;;
29984;SDS011;17387;42.690;23.328;2023-04-30T13:46:47;6.28;;;5.03;;
29984;SDS011;17387;42.690;23.328;2023-04-30T13:49:14;5.70;;;4.30;;
29984;SDS011;17387;42.690;23.328;2023-04-30T13:51:39;10.23;;;6.77;;
29984;SDS011;17387;42.690;23.328;2023-04-30T13:54:04;6.82;;;4.00;;
29984;SDS011;17387;42.690;23.328;2023-04-30T13:56:29;6.47;;;4.50;;
29984;SDS011;17387;42.690;23.328;2023-04-30T13:58:55;21.38;;;11.82;;
29984;SDS011;17387;42.690;23.328;2023-04-30T14:01:20;10.83;;;4.73;;
29984;SDS011;17387;42.690;23.328;2023-04-30T14:03:45;9.75;;;4.50;;
29984;SDS011;17387;42.690;23.328;2023-04-30T14:06:11;4.45;;;3.22;;
29984;SDS011;17387;42.690;23.328;2023-04-30T14:08:36;8.87;;;3.70;;
29984;SDS011;17387;42.690;23.328;2023-04-30T14:11:02;12.25;;;6.60;;
29984;SDS011;17387;42.690;23.328;2023-04-30T14:13:27;5.00;;;2.37;;
29984;SDS011;17387;42.690;23.328;2023-04-30T14:15:52;18.33;;;12.63;;
29984;SDS011;17387;42.690;23.328;2023-04-30T14:18:19;14.32;;;10.82;;
29984;SDS011;17387;42.690;23.328;2023-04-30T14:20:46;5.65;;;3.30;;
29984;SDS011;17387;42.690;23.328;2023-04-30T14:23:12;3.65;;;2.67;;
29984;SDS011;17387;42.690;23.328;2023-04-30T14:25:37;4.35;;;3.05;;
29984;SDS011;17387;42.690;23.328;2023-04-30T14:28:02;5.38;;;4.03;;
29984;SDS011;17387;42.690;23.328;2023-04-30T14:30:28;7.80;;;4.53;;
29984;SDS011;17387;42.690;23.328;2023-04-30T14:32:53;7.50;;;4.80;;
29984;SDS011;17387;42.690;23.328;2023-04-30T14:35:18;3.95;;;3.25;;
29984;SDS011;17387;42.690;23.328;2023-04-30T14:37:43;8.10;;;4.27;;
29984;SDS011;17387;42.690;23.328;2023-04-30T14:40:09;5.80;;;3.90;;